Hlavní strana
METAR-TAF:

METAR-TAF

Letiště :

Ammán, Jordánsko

zeměpisná šířka: 31-59N, zeměpisná délka: 035-59E, výška: 767 m

Aktuální stav počasí

Zpráva byla vytvořena před 2 hodinami a 4 minutami, v 03:00 UTC
Bezvětří
Teplota 15°C
Vlhkost vzduchu 44%
Tlak 1016 hPa
Viditelnost: 6000 m

METAR: OJAM 050300Z 00000KT 6000 NSC 15/03 Q1016 NOSIG

Čas: 08:04 (05:04 UTC)

Předpověď počasí

Zpráva byla vytvořena před 7 hodinami a 38 minutami, v 21:26 UTC
Předpověď platná od 05 v 00 UTC do 06 v 06 UTC
Východní vítr 6 kt
Viditelnost: 7000 m
Dočasný
od 05 v 03 UTC do 05 v 18 UTC
Jihovýchodní vítr 16 kt
Viditelnost: 4000 m
zákal
Pravděpodobnost 30%
mezi TM a EP UTC
Viditelnost: 2000 m
zvířený prach
Změna
od 05 v 18 UTC do 05 v 20 UTC
Západoseverozápadní vítr 6 kt
Viditelnost: 5000 m
Skoro jasno ve výšce 3500 ft
zákal

TAF: OJAM 042126Z 0500/0606 09006KT 7000 NSC TEMPO 0503/0518 13016KT 4000 HZ PROB30 TMEPO 0506/0515 13020G30 2000 BLDU BECMG 0518/0520 29006KT 5000 HZ FEW035

Stav a předpovědi počasí z více než 4 000 letišť (zprávy METAR a TAF).

Červené a žluté tečky na mapě představují dostupné meteorologické stanice.

Když kurzor umístíte na tečku, zobrazí se název stanice.

Pak kliknutím zobrazíte stav a předpověď počasí.

Chcete-li změnit mapu, kliknutím na zelené tlačítko se znaménkem +mapu přiblížíte, kliknutím na zelené tlačítko se znaménkem – mapu oddálíte a kliknutím na zelené šipky přejdete na sousední mapy.


METAR-TAF: